Impacts METAR Board INFO
IDs:

KMEM - Memphis Intl, TN, US

Updated at: 0816 UTC 12 Dec 2017
Potential Impact None Slight Moderate High
Time11/20Z 11/21Z 11/22Z 11/23Z 12/00Z 12/01Z 12/02Z 12/03Z 12/04Z 12/05Z 12/06Z 12/07Z 12/08Z
VIS10 10 10 10 10 10 10 10 10 10 10 10 10
CIG-- -- -- -- -- -- -- 200 200 200 200 150 180
CoverFEWFEWFEWFEWCLRCLRCLRBKNOVCBKNBKNOVCBKN
FltCatVFRVFRVFRVFRVFRVFRVFRVFRVFRVFRVFRVFRVFR
WX--------------------------
WDir220220200210220220230340340320340330330
WSpd14 14 13 11 10 8 10 11 6 5 7 10 12
WGst20 -- 19 -- -- -- -- -- -- -- -- -- 20
Raw hourly METARs
KMEM 111954Z 22014G20KT 10SM FEW060 18/M01 A2997 RMK AO2 SLP149 T01831011
KMEM 112054Z 22014KT 10SM FEW250 18/00 A2996 RMK AO2 SLP144 T01780000 56037
KMEM 112154Z 20013G19KT 10SM FEW250 18/01 A2993 RMK AO2 SLP136 T01780006
KMEM 112254Z 21011KT 10SM FEW150 16/01 A2992 RMK AO2 SLP130 T01610006
KMEM 112354Z 22010KT 10SM CLR 15/01 A2991 RMK AO2 SLP129 T01500006 10183 20150 56015
KMEM 120054Z 22008KT 10SM CLR 14/01 A2992 RMK AO2 SLP131 T01440006
KMEM 120154Z 23010KT 10SM CLR 14/00 A2993 RMK AO2 SLP136 T01440000
KMEM 120254Z COR 34011KT 10SM BKN200 13/M02 A2999 RMK AO2 SLP155 T01281022 53026
KMEM 120354Z 34006KT 10SM OVC200 12/M03 A3000 RMK AO2 SLP158 T01171033
KMEM 120454Z 32005KT 10SM BKN200 11/M04 A3000 RMK AO2 SLP159 T01111039
KMEM 120554Z 34007KT 10SM BKN200 10/M03 A3000 RMK AO2 SLP157 T01001033 10156 20100 401830011 50003
KMEM 120654Z 33010KT 10SM OVC150 11/M03 A3001 RMK AO2 SLP162 T01061028
KMEM 120754Z 33012G20KT 10SM BKN180 10/M02 A3003 RMK AO2 SLP169 T01001017